createdAt,value
2019-05-29T00:01:38.606Z,7.40
2019-05-29T00:04:08.122Z,7.60
2019-05-29T00:06:36.738Z,6.97
2019-05-29T00:09:06.659Z,7.67
2019-05-29T00:11:35.323Z,6.70
2019-05-29T00:14:18.817Z,6.37
2019-05-29T00:16:35.181Z,6.40
2019-05-29T00:19:03.665Z,6.20
2019-05-29T00:21:32.119Z,6.30
2019-05-29T00:24:00.585Z,6.27
2019-05-29T00:26:28.983Z,6.37
2019-05-29T00:28:57.409Z,6.57
2019-05-29T00:31:25.862Z,6.33
2019-05-29T00:33:54.345Z,5.83
2019-05-29T00:36:23.122Z,4.87
2019-05-29T00:38:53.158Z,5.30
2019-05-29T00:41:21.930Z,4.70
2019-05-29T00:43:50.353Z,5.20
2019-05-29T00:46:18.822Z,5.43
2019-05-29T00:48:47.581Z,5.30
2019-05-29T00:51:17.119Z,5.40
2019-05-29T00:53:45.847Z,5.00
2019-05-29T00:56:14.667Z,5.10
2019-05-29T00:58:43.169Z,5.10
2019-05-29T01:01:13.295Z,4.47
2019-05-29T01:03:41.815Z,4.80
2019-05-29T01:06:10.272Z,4.87
2019-05-29T01:08:38.738Z,5.40
2019-05-29T01:11:07.149Z,5.07
2019-05-29T01:13:36.116Z,5.10
2019-05-29T01:16:04.863Z,4.80
2019-05-29T01:18:33.295Z,3.90
2019-05-29T01:21:01.739Z,4.30
2019-05-29T01:23:30.519Z,5.10
2019-05-29T01:25:58.936Z,4.30
2019-05-29T01:28:27.369Z,4.37
2019-05-29T01:30:55.837Z,3.93
2019-05-29T01:33:25.018Z,4.30
2019-05-29T01:35:53.832Z,3.43
2019-05-29T01:38:23.515Z,4.53
2019-05-29T01:40:52.332Z,5.37
2019-05-29T01:43:21.468Z,4.17
2019-05-29T01:45:50.312Z,4.10
2019-05-29T01:48:19.546Z,4.50
2019-05-29T01:50:48.172Z,4.20
2019-05-29T01:53:17.662Z,4.80
2019-05-29T01:55:46.428Z,4.57
2019-05-29T01:58:15.657Z,4.93
2019-05-29T02:00:45.029Z,3.97
2019-05-29T02:03:13.432Z,4.73
2019-05-29T02:05:41.849Z,3.83
2019-05-29T02:08:11.879Z,4.00
2019-05-29T02:10:40.631Z,4.43
2019-05-29T02:13:09.049Z,4.57
2019-05-29T02:15:37.794Z,4.20
2019-05-29T02:18:06.278Z,4.07
2019-05-29T02:20:34.751Z,4.63
2019-05-29T02:23:03.765Z,4.50
2019-05-29T02:25:32.188Z,3.97
2019-05-29T02:28:00.607Z,3.20
2019-05-29T02:30:30.903Z,3.70
2019-05-29T02:32:59.678Z,4.00
2019-05-29T02:35:29.593Z,3.97
2019-05-29T02:37:58.353Z,3.37
2019-05-29T02:40:29.464Z,3.30
2019-05-29T02:42:57.050Z,3.30
2019-05-29T02:45:49.341Z,3.63
2019-05-29T02:47:55.726Z,3.97
2019-05-29T02:50:24.573Z,3.80
2019-05-29T02:52:54.638Z,3.50
2019-05-29T02:55:24.360Z,3.40
2019-05-29T02:57:53.070Z,3.40
2019-05-29T03:00:41.245Z,3.57
2019-05-29T03:03:09.844Z,4.17
2019-05-29T03:05:38.602Z,3.30
2019-05-29T03:08:08.483Z,3.30
2019-05-29T03:10:37.095Z,3.57
2019-05-29T03:13:06.442Z,3.37
2019-05-29T03:15:35.409Z,3.17
2019-05-29T03:18:04.361Z,4.00
2019-05-29T03:20:34.434Z,3.80
2019-05-29T03:23:03.039Z,4.00
2019-05-29T03:25:32.625Z,3.90
2019-05-29T03:28:01.539Z,3.80
2019-05-29T03:30:34.890Z,3.33
2019-05-29T03:33:00.190Z,3.37
2019-05-29T03:35:33.623Z,3.87
2019-05-29T03:37:59.227Z,3.43
2019-05-29T03:40:29.023Z,4.03
2019-05-29T03:42:58.379Z,3.20
2019-05-29T03:45:28.682Z,3.53
2019-05-29T03:47:57.007Z,4.13
2019-05-29T03:50:26.590Z,3.90
2019-05-29T03:52:55.686Z,4.50
2019-05-29T03:55:24.105Z,4.00
2019-05-29T03:57:52.872Z,4.80
2019-05-29T04:00:21.627Z,4.30
2019-05-29T04:02:50.131Z,4.80
2019-05-29T04:05:18.923Z,3.60
2019-05-29T04:07:47.758Z,3.73
2019-05-29T04:10:19.688Z,3.80
2019-05-29T04:12:48.501Z,4.00
2019-05-29T04:15:17.195Z,4.30
2019-05-29T04:17:46.548Z,4.50
2019-05-29T04:20:16.505Z,5.00
2019-05-29T04:22:45.917Z,4.97
2019-05-29T04:25:14.773Z,5.20
2019-05-29T04:27:43.783Z,4.93
2019-05-29T04:30:13.054Z,4.30
2019-05-29T04:32:41.804Z,4.87
2019-05-29T04:35:10.854Z,4.33
2019-05-29T04:37:40.109Z,3.97
2019-05-29T04:40:09.011Z,4.47
2019-05-29T04:42:40.010Z,5.20
2019-05-29T04:45:09.088Z,4.27
2019-05-29T04:47:39.335Z,4.87
2019-05-29T04:50:09.435Z,3.93
2019-05-29T04:52:40.232Z,4.03
2019-05-29T04:55:08.967Z,3.80
2019-05-29T04:57:37.696Z,4.20
2019-05-29T05:00:07.173Z,4.80
2019-05-29T05:02:35.606Z,4.50
2019-05-29T05:05:06.384Z,4.10
2019-05-29T05:07:35.382Z,3.90
2019-05-29T05:10:05.139Z,3.87
2019-05-29T05:12:33.956Z,3.40
2019-05-29T05:15:04.291Z,3.50
2019-05-29T05:17:33.746Z,3.37
2019-05-29T05:20:02.660Z,4.23
2019-05-29T05:22:32.053Z,3.80
2019-05-29T05:25:06.855Z,4.20
2019-05-29T05:27:36.339Z,3.97
2019-05-29T05:30:09.064Z,3.17
2019-05-29T05:32:38.741Z,3.87
2019-05-29T05:35:09.402Z,4.57
2019-05-29T05:37:38.886Z,3.50
2019-05-29T05:40:07.934Z,3.03
2019-05-29T05:42:37.180Z,3.50
2019-05-29T05:45:08.509Z,3.40
2019-05-29T05:47:52.203Z,2.73
2019-05-29T05:50:08.135Z,3.10
2019-05-29T05:52:37.504Z,2.83
2019-05-29T05:55:06.643Z,3.73
2019-05-29T05:57:35.611Z,3.10
2019-05-29T06:00:06.879Z,3.00
2019-05-29T06:02:35.908Z,3.87
2019-05-29T06:05:06.014Z,2.93
2019-05-29T06:07:34.418Z,3.63
2019-05-29T06:10:03.385Z,3.10
2019-05-29T06:12:32.238Z,2.90
2019-05-29T06:15:01.074Z,6.97
2019-05-29T06:17:30.264Z,4.40
2019-05-29T06:19:58.675Z,3.00
2019-05-29T06:22:27.091Z,3.27
2019-05-29T06:24:56.958Z,3.30
2019-05-29T06:27:26.154Z,2.50
2019-05-29T06:29:54.574Z,2.57
2019-05-29T06:32:23.020Z,2.80
2019-05-29T06:34:51.457Z,2.40
2019-05-29T06:37:19.863Z,3.13
2019-05-29T06:39:48.579Z,2.60
2019-05-29T06:42:17.024Z,2.43
2019-05-29T06:44:48.410Z,2.50
2019-05-29T06:47:15.906Z,2.20
2019-05-29T06:49:44.459Z,2.17
2019-05-29T06:52:12.918Z,2.53
2019-05-29T06:54:42.080Z,2.47
2019-05-29T06:57:10.569Z,2.50
2019-05-29T06:59:40.327Z,2.40
2019-05-29T07:02:09.203Z,2.40
2019-05-29T07:04:38.295Z,2.40
2019-05-29T07:07:06.780Z,2.40
2019-05-29T07:09:36.800Z,2.63
2019-05-29T07:12:06.653Z,1.80
2019-05-29T07:14:36.105Z,2.00
2019-05-29T07:17:04.953Z,2.60
2019-05-29T07:19:47.561Z,2.40
2019-05-29T07:22:04.192Z,2.50
2019-05-29T07:24:32.625Z,2.73
2019-05-29T07:27:01.185Z,2.50
2019-05-29T07:29:29.577Z,2.83
2019-05-29T07:31:57.969Z,2.47
2019-05-29T07:34:26.440Z,2.10
2019-05-29T07:36:55.137Z,2.70
2019-05-29T07:39:23.550Z,2.57
2019-05-29T07:41:53.888Z,2.13
2019-05-29T07:44:22.595Z,2.20
2019-05-29T07:46:51.035Z,2.47
2019-05-29T07:49:19.590Z,2.00
2019-05-29T07:51:48.859Z,3.00
2019-05-29T07:54:17.356Z,2.00
2019-05-29T07:56:46.655Z,2.63
2019-05-29T07:59:15.167Z,2.00
2019-05-29T08:01:44.764Z,2.70
2019-05-29T08:04:13.325Z,2.30
2019-05-29T08:06:48.293Z,1.73
2019-05-29T08:09:11.883Z,2.27
2019-05-29T08:11:41.535Z,2.33
2019-05-29T08:14:10.123Z,2.20
2019-05-29T08:16:39.674Z,2.30
2019-05-29T08:19:08.324Z,1.77
2019-05-29T08:21:36.735Z,2.80
2019-05-29T08:24:05.210Z,2.10
2019-05-29T08:26:33.920Z,2.90
2019-05-29T08:29:02.496Z,2.20
2019-05-29T08:31:30.916Z,2.60
2019-05-29T08:33:59.327Z,3.07
2019-05-29T08:36:28.064Z,3.13
2019-05-29T08:38:58.151Z,2.70
2019-05-29T08:41:26.642Z,2.60
2019-05-29T08:43:55.076Z,2.43
2019-05-29T08:46:23.501Z,3.10
2019-05-29T08:48:52.417Z,3.30
2019-05-29T08:51:20.956Z,2.83
2019-05-29T08:53:52.072Z,2.67
2019-05-29T08:56:19.943Z,3.40
2019-05-29T08:58:48.450Z,3.53
2019-05-29T09:01:16.868Z,2.67
2019-05-29T09:03:46.649Z,2.50
2019-05-29T09:06:15.360Z,2.83
2019-05-29T09:08:45.880Z,2.70
2019-05-29T09:11:14.751Z,2.67
2019-05-29T09:13:43.175Z,2.30
2019-05-29T09:16:11.819Z,2.73
2019-05-29T09:18:40.263Z,2.67
2019-05-29T09:21:08.682Z,1.93
2019-05-29T09:23:37.080Z,2.60
2019-05-29T09:26:15.758Z,2.47
2019-05-29T09:28:36.087Z,2.30
2019-05-29T09:31:04.766Z,2.17
2019-05-29T09:33:33.217Z,1.60
2019-05-29T09:36:01.625Z,2.03
2019-05-29T09:38:30.031Z,2.10
2019-05-29T09:40:58.829Z,2.40
2019-05-29T09:43:30.639Z,1.93
2019-05-29T09:45:57.635Z,2.10
2019-05-29T09:48:28.567Z,2.00
2019-05-29T09:50:56.667Z,2.17
2019-05-29T09:53:25.353Z,2.30
2019-05-29T09:55:56.998Z,1.77
2019-05-29T09:58:24.308Z,2.13
2019-05-29T10:01:16.200Z,2.50
2019-05-29T10:03:23.009Z,1.87
2019-05-29T10:05:51.519Z,1.93
2019-05-29T10:08:20.012Z,2.10
2019-05-29T10:10:48.522Z,1.90
2019-05-29T10:13:17.324Z,2.47
2019-05-29T10:15:45.730Z,2.60
2019-05-29T10:18:31.537Z,2.77
2019-05-29T10:20:44.633Z,1.80
2019-05-29T10:23:13.318Z,2.10
2019-05-29T10:25:42.124Z,2.30
2019-05-29T10:28:10.793Z,2.60
2019-05-29T10:30:39.221Z,2.00
2019-05-29T10:33:08.100Z,2.33
2019-05-29T10:35:36.496Z,2.40
2019-05-29T10:38:05.668Z,2.13
2019-05-29T10:40:35.530Z,2.00
2019-05-29T10:43:04.001Z,2.40
2019-05-29T10:45:32.444Z,3.20
2019-05-29T10:48:00.901Z,2.63
2019-05-29T10:50:29.412Z,2.60
2019-05-29T10:52:57.823Z,2.10
2019-05-29T10:55:26.273Z,2.20
2019-05-29T10:57:55.169Z,2.43
2019-05-29T11:00:24.718Z,1.70
2019-05-29T11:02:55.815Z,2.20
2019-05-29T11:05:23.942Z,2.17
2019-05-29T11:07:52.391Z,2.00
2019-05-29T11:10:21.226Z,1.80
2019-05-29T11:12:50.617Z,2.30
2019-05-29T11:15:22.044Z,2.10
2019-05-29T11:17:51.427Z,2.20
2019-05-29T11:20:22.519Z,1.37
2019-05-29T11:22:51.725Z,2.10
2019-05-29T11:25:24.870Z,2.63
2019-05-29T11:27:51.851Z,2.17
2019-05-29T11:30:21.722Z,1.83
2019-05-29T11:32:53.051Z,2.37
2019-05-29T11:35:21.778Z,2.50
2019-05-29T11:37:50.535Z,2.37
2019-05-29T11:40:20.407Z,2.43
2019-05-29T11:42:49.102Z,2.43
2019-05-29T11:45:18.056Z,1.97
2019-05-29T11:47:46.860Z,2.50
2019-05-29T11:50:19.576Z,2.10
2019-05-29T11:52:46.332Z,2.53
2019-05-29T11:55:15.323Z,2.10
2019-05-29T11:57:43.739Z,2.47
2019-05-29T12:00:20.340Z,2.03
2019-05-29T12:02:46.227Z,1.90
2019-05-29T12:05:15.375Z,2.17
2019-05-29T12:07:43.812Z,1.87
2019-05-29T12:10:14.548Z,1.77
2019-05-29T12:12:43.053Z,2.10
2019-05-29T12:15:15.626Z,2.50
2019-05-29T12:17:42.130Z,2.07
2019-05-29T12:20:26.797Z,2.00
2019-05-29T12:23:06.596Z,2.50
2019-05-29T12:25:12.564Z,3.20
2019-05-29T12:27:41.283Z,2.40
2019-05-29T12:30:14.470Z,3.90
2019-05-29T12:32:43.261Z,2.50
2019-05-29T12:35:12.213Z,2.77
2019-05-29T12:37:41.671Z,2.10
2019-05-29T12:40:10.648Z,2.27
2019-05-29T12:42:39.058Z,2.07
2019-05-29T12:45:08.917Z,1.57
2019-05-29T12:47:38.238Z,1.97
2019-05-29T12:50:11.676Z,1.90
2019-05-29T12:52:40.528Z,1.70
2019-05-29T12:55:10.672Z,1.77
2019-05-29T12:57:39.122Z,2.20
2019-05-29T13:00:12.552Z,2.10
2019-05-29T13:02:41.624Z,2.47
2019-05-29T13:05:18.265Z,2.30
2019-05-29T13:07:41.669Z,2.90
2019-05-29T13:10:27.210Z,2.90
2019-05-29T13:12:43.340Z,2.40
2019-05-29T13:15:14.599Z,2.13
2019-05-29T13:17:43.717Z,2.10
2019-05-29T13:20:21.155Z,1.47
2019-05-29T13:22:42.946Z,2.00
2019-05-29T13:25:12.287Z,1.70
2019-05-29T13:27:40.707Z,2.00
2019-05-29T13:30:10.875Z,1.67
2019-05-29T13:32:39.774Z,2.20
2019-05-29T13:35:08.644Z,2.20
2019-05-29T13:37:37.383Z,2.17
2019-05-29T13:40:08.612Z,2.13
2019-05-29T13:42:37.197Z,1.50
2019-05-29T13:45:16.831Z,2.07
2019-05-29T13:47:37.430Z,1.90
2019-05-29T13:50:11.715Z,2.00
2019-05-29T13:52:38.102Z,2.33
2019-05-29T13:55:08.244Z,1.20
2019-05-29T13:57:39.751Z,1.70
2019-05-29T14:00:31.735Z,1.80
2019-05-29T14:02:39.432Z,1.43
2019-05-29T14:05:08.853Z,1.30
2019-05-29T14:07:37.384Z,1.20
2019-05-29T14:10:07.761Z,1.40
2019-05-29T14:12:38.171Z,1.20
2019-05-29T14:15:10.232Z,1.27
2019-05-29T14:17:39.037Z,3.83
2019-05-29T14:20:08.963Z,3.30
2019-05-29T14:22:37.629Z,2.93
2019-05-29T14:25:09.527Z,1.07
2019-05-29T14:27:38.783Z,1.03
2019-05-29T14:30:14.113Z,0.90
2019-05-29T14:32:42.539Z,1.20
2019-05-29T14:35:13.103Z,0.83
2019-05-29T14:37:41.373Z,0.97
2019-05-29T14:40:11.920Z,1.00
2019-05-29T14:42:41.463Z,1.33
2019-05-29T14:45:10.668Z,1.20
2019-05-29T14:47:39.451Z,1.10
2019-05-29T14:50:08.890Z,0.90
2019-05-29T14:52:37.650Z,0.60
2019-05-29T14:55:08.905Z,1.13
2019-05-29T14:57:37.992Z,0.80
2019-05-29T15:00:24.155Z,0.90
2019-05-29T15:02:43.267Z,0.60
2019-05-29T15:05:14.772Z,0.80
2019-05-29T15:07:43.440Z,1.03
2019-05-29T15:10:22.671Z,0.97
2019-05-29T15:12:42.559Z,1.20
2019-05-29T15:15:14.345Z,1.13
2019-05-29T15:17:41.876Z,1.10
2019-05-29T15:20:12.584Z,1.03
2019-05-29T15:22:41.703Z,0.67
2019-05-29T15:25:18.563Z,1.20
2019-05-29T15:27:41.137Z,0.63
2019-05-29T15:30:13.599Z,1.00
2019-05-29T15:32:40.994Z,0.90
2019-05-29T15:35:14.432Z,0.70
2019-05-29T15:37:40.513Z,0.73
2019-05-29T15:40:12.859Z,0.93
2019-05-29T15:42:42.087Z,0.90
2019-05-29T15:45:14.038Z,0.87
2019-05-29T15:47:42.666Z,0.90
2019-05-29T15:50:14.180Z,1.00
2019-05-29T15:52:43.906Z,0.97
2019-05-29T15:55:31.283Z,0.87
2019-05-29T15:57:43.844Z,1.07
2019-05-29T16:00:17.577Z,1.40
2019-05-29T16:02:49.041Z,1.10
2019-05-29T16:05:18.976Z,1.53
2019-05-29T16:07:47.705Z,1.50
2019-05-29T16:10:19.139Z,0.80
2019-05-29T16:12:47.363Z,1.30
2019-05-29T16:15:17.405Z,1.23
2019-05-29T16:17:46.186Z,0.90
2019-05-29T16:20:16.337Z,1.07
2019-05-29T16:22:45.173Z,1.40
2019-05-29T16:25:15.477Z,1.13
2019-05-29T16:27:43.899Z,1.17
2019-05-29T16:30:13.585Z,1.30
2019-05-29T16:32:42.275Z,1.37
2019-05-29T16:35:12.937Z,0.97
2019-05-29T16:37:41.653Z,1.03
2019-05-29T16:40:11.890Z,1.40
2019-05-29T16:42:40.620Z,1.27
2019-05-29T16:45:12.065Z,0.87
2019-05-29T16:47:41.088Z,1.20
2019-05-29T16:50:10.790Z,0.93
2019-05-29T16:52:39.242Z,1.00
2019-05-29T16:55:08.177Z,1.00
2019-05-29T16:57:36.865Z,1.17
2019-05-29T17:00:09.447Z,1.00
2019-05-29T17:02:38.651Z,1.00
2019-05-29T17:05:07.502Z,0.77
2019-05-29T17:07:36.089Z,1.17
2019-05-29T17:10:06.625Z,1.13
2019-05-29T17:12:35.047Z,1.10
2019-05-29T17:15:05.053Z,1.00
2019-05-29T17:17:33.463Z,1.30
2019-05-29T17:20:02.590Z,1.00
2019-05-29T17:22:31.440Z,1.37
2019-05-29T17:24:59.834Z,1.20
2019-05-29T17:27:29.113Z,0.83
2019-05-29T17:29:57.938Z,1.10
2019-05-29T17:32:26.692Z,1.07
2019-05-29T17:34:55.089Z,0.97
2019-05-29T17:37:23.778Z,1.07
2019-05-29T17:39:52.175Z,0.90
2019-05-29T17:42:20.666Z,1.50
2019-05-29T17:44:49.119Z,1.40
2019-05-29T17:47:17.800Z,1.30
2019-05-29T17:49:47.025Z,1.73
2019-05-29T17:52:15.771Z,1.63
2019-05-29T17:54:44.276Z,1.80
2019-05-29T17:57:12.654Z,1.47
2019-05-29T17:59:41.406Z,1.87
2019-05-29T18:02:09.896Z,2.03
2019-05-29T18:04:38.393Z,2.17
2019-05-29T18:07:06.860Z,1.60
2019-05-29T18:09:35.534Z,1.80
2019-05-29T18:12:04.004Z,1.57
2019-05-29T18:14:32.895Z,1.20
2019-05-29T18:17:01.281Z,1.63
2019-05-29T18:19:30.635Z,2.10
2019-05-29T18:21:59.150Z,1.10
2019-05-29T18:24:28.134Z,1.50
2019-05-29T18:26:59.026Z,1.37
2019-05-29T18:29:26.896Z,1.43
2019-05-29T18:31:55.457Z,1.50
2019-05-29T18:34:25.232Z,1.90
2019-05-29T18:36:53.756Z,1.60
2019-05-29T18:39:22.229Z,1.73
2019-05-29T18:41:50.634Z,1.70
2019-05-29T18:44:20.629Z,1.60
2019-05-29T18:46:49.223Z,1.60
2019-05-29T18:49:17.610Z,1.60
2019-05-29T18:51:46.862Z,1.53
2019-05-29T18:54:15.273Z,2.00
2019-05-29T18:56:43.700Z,1.57
2019-05-29T18:59:12.199Z,1.53
2019-05-29T19:01:42.120Z,1.77
2019-05-29T19:04:10.494Z,1.37
2019-05-29T19:06:40.903Z,2.37
2019-05-29T19:09:09.688Z,1.70
2019-05-29T19:11:38.092Z,2.27
2019-05-29T19:14:06.585Z,1.70
2019-05-29T19:16:39.249Z,2.30
2019-05-29T19:19:06.033Z,2.37
2019-05-29T19:21:34.531Z,1.97
2019-05-29T19:24:02.958Z,2.00
2019-05-29T19:26:36.291Z,2.87
2019-05-29T19:29:02.003Z,1.83
2019-05-29T19:31:31.274Z,2.00
2019-05-29T19:33:59.867Z,2.10
2019-05-29T19:36:29.739Z,2.20
2019-05-29T19:38:58.713Z,1.67
2019-05-29T19:41:27.872Z,2.10
2019-05-29T19:43:56.461Z,2.30
2019-05-29T19:46:24.890Z,1.60
2019-05-29T19:48:53.690Z,2.30
2019-05-29T19:51:22.126Z,1.80
2019-05-29T19:53:50.595Z,2.50
2019-05-29T19:56:19.449Z,2.73
2019-05-29T19:58:47.876Z,2.10
2019-05-29T20:01:30.205Z,2.20
2019-05-29T20:03:46.510Z,3.93
2019-05-29T20:06:14.964Z,3.43
2019-05-29T20:08:43.623Z,2.67
2019-05-29T20:11:12.056Z,2.67
2019-05-29T20:13:40.579Z,2.40
2019-05-29T20:16:09.509Z,3.10
2019-05-29T20:18:38.981Z,2.73
2019-05-29T20:21:07.514Z,2.73
2019-05-29T20:23:36.771Z,2.90
2019-05-29T20:26:05.868Z,2.90
2019-05-29T20:28:36.118Z,2.30
2019-05-29T20:31:05.223Z,3.60
2019-05-29T20:33:34.539Z,4.40
2019-05-29T20:36:03.024Z,3.13
2019-05-29T20:38:31.531Z,2.77
2019-05-29T20:41:00.392Z,3.47
2019-05-29T20:43:28.820Z,3.10
2019-05-29T20:45:57.454Z,3.87
2019-05-29T20:48:25.894Z,2.67
2019-05-29T20:50:54.355Z,2.67
2019-05-29T20:53:23.105Z,3.53
2019-05-29T20:55:51.829Z,3.10
2019-05-29T20:58:24.679Z,2.10
2019-05-29T21:00:50.829Z,2.43
2019-05-29T21:03:19.526Z,2.70
2019-05-29T21:05:48.259Z,2.80
2019-05-29T21:08:16.726Z,2.33
2019-05-29T21:10:45.245Z,2.70
2019-05-29T21:13:14.075Z,2.40
2019-05-29T21:15:43.730Z,3.50
2019-05-29T21:18:12.715Z,4.23
2019-05-29T21:20:42.652Z,5.00
2019-05-29T21:23:11.271Z,3.90
2019-05-29T21:25:40.709Z,4.30
2019-05-29T21:28:10.191Z,3.43
2019-05-29T21:30:39.495Z,3.90
2019-05-29T21:33:08.071Z,2.90
2019-05-29T21:35:36.611Z,3.17
2019-05-29T21:38:05.473Z,2.70
2019-05-29T21:40:34.467Z,3.10
2019-05-29T21:43:02.973Z,3.03
2019-05-29T21:45:31.429Z,2.83
2019-05-29T21:48:00.344Z,3.17
2019-05-29T21:50:29.090Z,3.20
2019-05-29T21:52:57.502Z,2.80
2019-05-29T21:55:26.418Z,4.00
2019-05-29T21:57:55.196Z,2.40
2019-05-29T22:00:37.884Z,2.20
2019-05-29T22:03:06.594Z,2.50
2019-05-29T22:05:35.047Z,3.03
2019-05-29T22:08:03.505Z,3.07
2019-05-29T22:10:32.528Z,2.20
2019-05-29T22:13:01.673Z,2.70
2019-05-29T22:15:30.192Z,2.50
2019-05-29T22:17:59.200Z,2.40
2019-05-29T22:20:27.782Z,2.20
2019-05-29T22:22:57.182Z,2.60
2019-05-29T22:25:25.833Z,2.20
2019-05-29T22:27:55.471Z,2.50
2019-05-29T22:30:24.327Z,2.80
2019-05-29T22:32:53.321Z,3.10
2019-05-29T22:35:22.827Z,2.87
2019-05-29T22:37:51.548Z,3.30
2019-05-29T22:40:20.760Z,2.43
2019-05-29T22:42:49.192Z,2.60
2019-05-29T22:45:18.233Z,3.17
2019-05-29T22:47:46.742Z,3.37
2019-05-29T22:50:15.239Z,2.70
2019-05-29T22:52:44.598Z,3.13
2019-05-29T22:55:13.572Z,2.80
2019-05-29T22:57:42.436Z,3.30
2019-05-29T23:00:11.364Z,2.43
2019-05-29T23:02:39.795Z,2.70
2019-05-29T23:05:08.676Z,2.50
2019-05-29T23:07:37.146Z,2.60
2019-05-29T23:10:08.047Z,3.20
2019-05-29T23:12:36.899Z,3.00
2019-05-29T23:15:07.345Z,3.30
2019-05-29T23:17:35.879Z,3.00
2019-05-29T23:20:06.658Z,2.63
2019-05-29T23:22:35.233Z,3.33
2019-05-29T23:25:04.537Z,2.53
2019-05-29T23:27:33.546Z,3.63
2019-05-29T23:30:03.299Z,3.07
2019-05-29T23:32:32.066Z,2.97
2019-05-29T23:35:01.306Z,3.30
2019-05-29T23:37:29.833Z,3.07
2019-05-29T23:39:59.297Z,3.00
2019-05-29T23:42:27.778Z,3.40
2019-05-29T23:44:57.552Z,3.07
2019-05-29T23:47:26.163Z,3.13
2019-05-29T23:49:55.505Z,3.30
2019-05-29T23:52:24.097Z,3.07
2019-05-29T23:54:53.563Z,3.60
2019-05-29T23:57:22.410Z,3.30
